createdAt,value
2022-09-27T00:00:13.082Z,61624.87
2022-09-27T00:01:16.575Z,61869.90
2022-09-27T00:02:19.930Z,61670.06
2022-09-27T00:03:22.629Z,60689.04
2022-09-27T00:04:25.506Z,59357.98
2022-09-27T00:05:28.169Z,58073.52
2022-09-27T00:06:30.735Z,56881.75
2022-09-27T00:07:34.670Z,56097.47
2022-09-27T00:08:37.371Z,56558.79
2022-09-27T00:09:40.048Z,56782.46
2022-09-27T00:10:42.855Z,55258.19
2022-09-27T00:11:45.830Z,54305.82
2022-09-27T00:12:48.907Z,53848.77
2022-09-27T00:13:52.093Z,53697.43
2022-09-27T00:14:54.766Z,53510.02
2022-09-27T00:15:57.677Z,53395.78
2022-09-27T00:17:00.826Z,53507.02
2022-09-27T00:18:03.691Z,53903.90
2022-09-27T00:20:26.949Z,54330.89
2022-09-27T00:21:29.930Z,54177.52
2022-09-27T00:22:32.931Z,54011.14
2022-09-27T00:23:35.893Z,53903.90
2022-09-27T00:24:38.865Z,53729.50
2022-09-27T00:25:42.050Z,53641.31
2022-09-27T00:26:44.810Z,53562.14
2022-09-27T00:27:47.483Z,53783.62
2022-09-27T00:28:50.565Z,53998.11
2022-09-27T00:29:53.960Z,54477.23
2022-09-27T00:30:56.826Z,54842.13
2022-09-27T00:31:59.699Z,54574.47
2022-09-27T00:33:02.881Z,54224.64
2022-09-27T00:34:05.664Z,53839.75
2022-09-27T00:35:08.647Z,53855.79
2022-09-27T00:36:11.308Z,53747.55
2022-09-27T00:37:14.279Z,53629.29
2022-09-27T00:38:17.576Z,53898.88
2022-09-27T00:39:20.639Z,54058.25
2022-09-27T00:40:25.514Z,53911.91
2022-09-27T00:41:28.237Z,53837.75
2022-09-27T00:42:31.313Z,53956.02
2022-09-27T00:43:34.199Z,54003.12
2022-09-27T00:44:37.059Z,54011.14
2022-09-27T00:45:39.945Z,54076.29
2022-09-27T00:46:43.071Z,54058.25
2022-09-27T00:47:46.307Z,54033.19
2022-09-27T00:48:49.403Z,54276.76
2022-09-27T00:49:52.464Z,54221.63
2022-09-27T00:50:55.540Z,54117.39
2022-09-27T00:51:58.719Z,54022.16
2022-09-27T00:53:01.805Z,54106.36
2022-09-27T00:54:04.771Z,54144.45
2022-09-27T00:55:08.069Z,54317.86
2022-09-27T00:56:11.063Z,54412.08
2022-09-27T00:57:14.138Z,54495.28
2022-09-27T00:58:16.893Z,54661.68
2022-09-27T00:59:20.579Z,54495.28
2022-09-27T01:00:23.861Z,54113.37
2022-09-27T01:01:26.911Z,55534.92
2022-09-27T01:02:29.910Z,57058.29
2022-09-27T01:03:33.014Z,57945.10
2022-09-27T01:04:35.674Z,58676.57
2022-09-27T01:05:38.855Z,59610.91
2022-09-27T01:06:45.319Z,60021.45
2022-09-27T01:07:48.602Z,60108.79
2022-09-27T01:08:52.105Z,59657.08
2022-09-27T01:09:55.164Z,59646.04
2022-09-27T01:10:58.146Z,59531.62
2022-09-27T01:12:01.129Z,59504.52
2022-09-27T01:13:05.331Z,59755.45
2022-09-27T01:14:08.656Z,59944.16
2022-09-27T01:15:11.843Z,59905.01
2022-09-27T01:16:15.488Z,59487.46
2022-09-27T01:17:18.607Z,58850.17
2022-09-27T01:18:21.582Z,58798.99
2022-09-27T01:19:24.663Z,58595.29
2022-09-27T01:20:27.645Z,58567.19
2022-09-27T01:21:30.921Z,58846.16
2022-09-27T01:22:33.653Z,58008.31
2022-09-27T01:23:36.447Z,57175.65
2022-09-27T01:24:39.090Z,56379.27
2022-09-27T01:25:42.186Z,56163.65
2022-09-27T01:26:45.363Z,56428.41
2022-09-27T01:27:48.227Z,55840.75
2022-09-27T01:28:52.254Z,55630.18
2022-09-27T01:29:55.526Z,54667.70
2022-09-27T01:30:58.431Z,54281.77
2022-09-27T01:32:01.281Z,54525.35
2022-09-27T01:33:04.160Z,54849.15
2022-09-27T01:34:07.343Z,55517.88
2022-09-27T01:35:10.414Z,55888.89
2022-09-27T01:36:13.692Z,55916.96
2022-09-27T01:37:16.772Z,55317.35
2022-09-27T01:38:19.770Z,55338.40
2022-09-27T01:39:22.621Z,55859.80
2022-09-27T01:40:25.807Z,56189.73
2022-09-27T01:41:28.680Z,56861.69
2022-09-27T01:42:31.647Z,55999.19
2022-09-27T01:43:34.629Z,55108.80
2022-09-27T01:44:37.293Z,54922.33
2022-09-27T01:45:40.322Z,55275.24
2022-09-27T01:46:43.903Z,55675.30
2022-09-27T01:47:46.638Z,56095.46
2022-09-27T01:48:49.655Z,55843.76
2022-09-27T01:49:52.729Z,55920.97
2022-09-27T01:50:56.290Z,56447.47
2022-09-27T01:51:59.404Z,56741.33
2022-09-27T01:53:02.174Z,57015.16
2022-09-27T01:54:05.006Z,57068.32
2022-09-27T01:55:07.791Z,56874.73
2022-09-27T01:56:10.562Z,56708.23
2022-09-27T01:57:13.747Z,56569.82
2022-09-27T01:58:17.213Z,55986.16
2022-09-27T01:59:20.042Z,55854.79
2022-09-27T02:00:22.778Z,56033.29
2022-09-27T02:01:25.642Z,56527.70
2022-09-27T02:02:28.851Z,56922.87
2022-09-27T02:03:31.948Z,57097.41
2022-09-27T02:04:35.562Z,57161.61
2022-09-27T02:05:38.630Z,57180.66
2022-09-27T02:06:42.072Z,56573.84
2022-09-27T02:07:44.942Z,55451.70
2022-09-27T02:08:48.033Z,54807.04
2022-09-27T02:09:50.693Z,54650.66
2022-09-27T02:10:54.014Z,54912.31
2022-09-27T02:11:57.382Z,54757.92
2022-09-27T02:13:00.298Z,54515.33
2022-09-27T02:14:03.244Z,54471.22
2022-09-27T02:15:06.444Z,54561.44
2022-09-27T02:16:09.851Z,54510.32
2022-09-27T02:17:13.178Z,54084.31
2022-09-27T02:18:16.669Z,53909.91
2022-09-27T02:19:25.572Z,53831.73
2022-09-27T02:20:28.957Z,53857.79
2022-09-27T02:21:31.748Z,53895.88
2022-09-27T02:22:34.881Z,54118.39
2022-09-27T02:23:38.339Z,54100.35
2022-09-27T02:24:41.491Z,54575.47
2022-09-27T02:25:44.888Z,54365.97
2022-09-27T02:26:47.657Z,54341.91
2022-09-27T02:27:51.065Z,54320.86
2022-09-27T02:28:54.332Z,54762.93
2022-09-27T02:29:57.512Z,54718.82
2022-09-27T02:31:00.892Z,54583.49
2022-09-27T02:32:04.000Z,54622.59
2022-09-27T02:33:07.281Z,54732.86
2022-09-27T02:34:10.646Z,55030.61
2022-09-27T02:35:14.056Z,55033.61
2022-09-27T02:36:17.364Z,54599.53
2022-09-27T02:37:20.180Z,54160.48
2022-09-27T02:38:22.952Z,53858.79
2022-09-27T02:39:25.668Z,53778.61
2022-09-27T02:40:29.106Z,53811.69
2022-09-27T02:41:32.609Z,53993.10
2022-09-27T02:42:35.920Z,54252.70
2022-09-27T02:43:38.862Z,54496.28
2022-09-27T02:44:41.845Z,54978.47
2022-09-27T02:45:45.442Z,55467.74
2022-09-27T02:46:51.016Z,55642.21
2022-09-27T02:47:54.305Z,55941.03
2022-09-27T02:48:57.691Z,56347.18
2022-09-27T02:50:00.425Z,56466.52
2022-09-27T02:51:03.335Z,56913.85
2022-09-27T02:52:06.625Z,57574.90
2022-09-27T02:53:09.933Z,57999.28
2022-09-27T02:54:18.411Z,58137.73
2022-09-27T02:55:21.249Z,58053.46
2022-09-27T02:56:25.692Z,57905.97
2022-09-27T02:57:28.667Z,58087.57
2022-09-27T02:58:32.333Z,58625.39
2022-09-27T02:59:36.053Z,58905.36
2022-09-27T03:00:49.343Z,58641.45
2022-09-27T03:01:52.773Z,58258.14
2022-09-27T03:02:57.157Z,57200.73
2022-09-27T03:04:01.043Z,56568.82
2022-09-27T03:05:07.185Z,56424.40
2022-09-27T03:06:11.335Z,56762.39
2022-09-27T03:07:15.289Z,56982.05
2022-09-27T03:08:18.370Z,57096.41
2022-09-27T03:09:21.242Z,56982.05
2022-09-27T03:10:25.689Z,57017.16
2022-09-27T03:11:28.794Z,56601.92
2022-09-27T03:12:34.548Z,56113.51
2022-09-27T03:13:55.494Z,56083.43
2022-09-27T03:14:42.909Z,56061.37
2022-09-27T03:15:47.568Z,55980.14
2022-09-27T03:16:50.549Z,55998.19
2022-09-27T03:17:53.450Z,56222.82
2022-09-27T03:18:56.464Z,56037.30
2022-09-27T03:19:59.542Z,55978.13
2022-09-27T03:21:02.803Z,56250.90
2022-09-27T03:22:06.331Z,56231.85
2022-09-27T03:23:10.127Z,55717.41
2022-09-27T03:24:16.021Z,55236.13
2022-09-27T03:25:19.511Z,55114.82
2022-09-27T03:26:22.738Z,55199.04
2022-09-27T03:27:25.979Z,55164.95
2022-09-27T03:28:30.000Z,55358.46
2022-09-27T03:30:56.028Z,55960.08
2022-09-27T03:31:58.983Z,55989.16
2022-09-27T03:33:02.065Z,56258.93
2022-09-27T03:34:05.560Z,56501.63
2022-09-27T03:35:13.053Z,56478.56
2022-09-27T03:36:16.460Z,56367.23
2022-09-27T03:37:19.514Z,56454.49
2022-09-27T03:38:22.942Z,56241.87
2022-09-27T03:39:26.303Z,56297.04
2022-09-27T03:40:30.281Z,56188.73
2022-09-27T03:41:33.812Z,56116.52
2022-09-27T03:42:50.431Z,56279.98
2022-09-27T03:44:07.171Z,56255.92
2022-09-27T03:45:10.801Z,56054.34
2022-09-27T03:46:13.713Z,56207.78
2022-09-27T03:47:16.402Z,56208.78
2022-09-27T03:48:20.855Z,56090.45
2022-09-27T03:49:27.391Z,56085.43
2022-09-27T03:50:30.241Z,56263.94
2022-09-27T03:51:40.033Z,56715.25
2022-09-27T03:52:43.608Z,56786.47
2022-09-27T03:53:47.011Z,57240.85
2022-09-27T03:54:50.497Z,57455.52
2022-09-27T03:55:53.567Z,57609.01
2022-09-27T03:56:56.401Z,57664.19
2022-09-27T03:58:03.387Z,57578.91
2022-09-27T03:59:06.457Z,57624.06
2022-09-27T04:00:14.691Z,57426.43
2022-09-27T04:01:17.859Z,57283.98
2022-09-27T04:02:21.217Z,57232.83
2022-09-27T04:03:25.270Z,57184.68
2022-09-27T04:04:32.620Z,57427.43
2022-09-27T04:05:36.199Z,57613.02
2022-09-27T04:06:39.281Z,57585.94
2022-09-27T04:07:42.161Z,57535.78
2022-09-27T04:08:45.261Z,57497.66
2022-09-27T04:09:49.250Z,57522.73
2022-09-27T04:12:11.577Z,57587.94
2022-09-27T04:13:15.474Z,57478.59
2022-09-27T04:14:18.103Z,57256.90
2022-09-27T04:15:21.657Z,57434.46
2022-09-27T04:16:24.522Z,57628.07
2022-09-27T04:17:27.999Z,57579.92
2022-09-27T04:19:51.807Z,57578.91
2022-09-27T04:20:55.077Z,57703.31
2022-09-27T04:21:58.987Z,57788.59
2022-09-27T04:23:02.684Z,57784.57
2022-09-27T04:24:06.019Z,57802.63
2022-09-27T04:25:09.312Z,57868.85
2022-09-27T04:26:11.768Z,57922.02
2022-09-27T04:27:14.952Z,57865.84
2022-09-27T04:28:18.583Z,58094.59
2022-09-27T04:29:22.151Z,58392.59
2022-09-27T04:30:30.190Z,58635.42
2022-09-27T04:31:36.603Z,58847.16
2022-09-27T04:32:39.922Z,58990.66
2022-09-27T04:33:42.861Z,59290.74
2022-09-27T04:34:49.621Z,59527.61
2022-09-27T04:35:52.292Z,59788.57
2022-09-27T04:36:55.268Z,59945.16
2022-09-27T04:37:58.144Z,60133.88
2022-09-27T04:39:01.013Z,60254.34
2022-09-27T04:40:04.144Z,60321.60
2022-09-27T04:41:07.621Z,60403.92
2022-09-27T04:42:10.566Z,60463.15
2022-09-27T04:43:13.541Z,60523.39
2022-09-27T04:44:17.032Z,60574.59
2022-09-27T04:45:20.364Z,60607.72
2022-09-27T04:46:23.463Z,60658.92
2022-09-27T04:47:26.265Z,60726.19
2022-09-27T04:48:29.925Z,60700.09
2022-09-27T04:49:33.393Z,60536.44
2022-09-27T04:50:36.655Z,60552.50
2022-09-27T04:51:39.414Z,60461.14
2022-09-27T04:52:42.519Z,60347.70
2022-09-27T04:53:45.812Z,60273.42
2022-09-27T04:54:51.296Z,60091.72
2022-09-27T04:55:54.484Z,59848.80
2022-09-27T04:56:57.675Z,59747.42
2022-09-27T04:58:01.004Z,59482.44
2022-09-27T04:59:08.371Z,59223.50
2022-09-27T05:00:08.993Z,58705.66
2022-09-27T05:01:12.328Z,58497.95
2022-09-27T05:02:15.978Z,58267.17
2022-09-27T05:03:18.965Z,58060.48
2022-09-27T05:04:22.443Z,57996.27
2022-09-27T05:05:25.817Z,58239.07
2022-09-27T05:06:29.541Z,58270.18
2022-09-27T05:07:32.359Z,58195.93
2022-09-27T05:08:35.375Z,58075.53
2022-09-27T05:09:38.646Z,58083.55
2022-09-27T05:10:42.052Z,57911.99
2022-09-27T05:11:45.122Z,57722.37
2022-09-27T05:12:49.089Z,57520.73
2022-09-27T05:13:52.205Z,57517.72
2022-09-27T05:14:55.184Z,57399.35
2022-09-27T05:15:58.321Z,57349.19
2022-09-27T05:17:01.319Z,57371.26
2022-09-27T05:18:04.184Z,57361.23
2022-09-27T05:19:06.974Z,57049.26
2022-09-27T05:20:09.843Z,56584.87
2022-09-27T05:21:12.680Z,56455.49
2022-09-27T05:22:16.603Z,56310.07
2022-09-27T05:23:19.821Z,56112.51
2022-09-27T05:26:31.104Z,55730.45
2022-09-27T05:27:33.770Z,55612.13
2022-09-27T05:28:37.362Z,55934.01
2022-09-27T05:29:40.446Z,56123.54
2022-09-27T05:30:43.385Z,56187.72
2022-09-27T05:31:46.769Z,56186.72
2022-09-27T05:32:50.063Z,56303.05
2022-09-27T05:33:52.621Z,56354.20
2022-09-27T05:34:55.298Z,56362.22
2022-09-27T05:35:59.932Z,56346.18
2022-09-27T05:37:03.180Z,56397.32
2022-09-27T05:38:06.271Z,56330.13
2022-09-27T05:39:09.651Z,56270.96
2022-09-27T05:40:36.601Z,56255.92
2022-09-27T05:41:17.524Z,56417.38
2022-09-27T05:42:20.626Z,56630.00
2022-09-27T05:43:23.709Z,56872.73
2022-09-27T05:44:26.903Z,57117.47
2022-09-27T05:45:30.281Z,57312.07
2022-09-27T05:46:35.701Z,57434.46
2022-09-27T05:47:39.551Z,57564.87
2022-09-27T05:48:43.142Z,57846.78
2022-09-27T05:49:46.488Z,58128.71
2022-09-27T05:51:03.092Z,58500.96
2022-09-27T05:52:13.252Z,58689.61
2022-09-27T05:53:15.224Z,58945.50
2022-09-27T05:54:17.846Z,59063.93
2022-09-27T05:55:21.355Z,59302.79
2022-09-27T05:56:24.470Z,59418.20
2022-09-27T05:57:27.661Z,59580.80
2022-09-27T05:58:31.697Z,59761.47
2022-09-27T05:59:35.210Z,59954.20
2022-09-27T06:00:38.925Z,60121.83
2022-09-27T06:01:41.920Z,60158.98
2022-09-27T06:02:44.887Z,60217.20
2022-09-27T06:03:48.632Z,60288.48
2022-09-27T06:04:52.341Z,60318.59
2022-09-27T06:05:56.913Z,60358.75
2022-09-27T06:07:00.235Z,60424.00
2022-09-27T06:08:03.772Z,60383.84
2022-09-27T06:09:08.654Z,60393.88
2022-09-27T06:10:11.834Z,60443.07
2022-09-27T06:11:15.375Z,60416.97
2022-09-27T06:12:20.033Z,60417.98
2022-09-27T06:13:23.057Z,60467.17
2022-09-27T06:14:29.939Z,60465.16
2022-09-27T06:15:32.653Z,60478.21
2022-09-27T06:16:36.063Z,60510.34
2022-09-27T06:17:39.161Z,60533.43
2022-09-27T06:18:42.431Z,60544.47
2022-09-27T06:20:02.961Z,60560.54
2022-09-27T06:21:06.173Z,60584.63
2022-09-27T06:22:11.230Z,60735.23
2022-09-27T06:23:15.344Z,60735.23
2022-09-27T06:24:19.503Z,60790.45
2022-09-27T06:25:23.338Z,60886.84
2022-09-27T06:26:26.376Z,61064.55
2022-09-27T06:27:30.368Z,61124.80
2022-09-27T06:28:34.835Z,61211.15
2022-09-27T06:29:37.553Z,61332.65
2022-09-27T06:30:41.864Z,61343.70
2022-09-27T06:31:45.617Z,61416.00
2022-09-27T06:32:50.619Z,61462.19
2022-09-27T06:33:53.970Z,61552.56
2022-09-27T06:34:57.178Z,61605.79
2022-09-27T06:36:01.190Z,61647.96
2022-09-27T06:37:05.409Z,61735.33
2022-09-27T06:38:15.994Z,61786.55
2022-09-27T06:39:19.565Z,61896.02
2022-09-27T06:40:23.158Z,61995.44
2022-09-27T06:41:26.681Z,62067.75
2022-09-27T06:42:29.778Z,62157.14
2022-09-27T06:43:32.944Z,62218.41
2022-09-27T06:44:37.194Z,62326.88
2022-09-27T06:45:40.601Z,62317.84
2022-09-27T06:46:49.546Z,62328.89
2022-09-27T06:47:53.080Z,62324.87
2022-09-27T06:48:57.094Z,62365.05
2022-09-27T06:50:01.782Z,62337.93
2022-09-27T06:51:07.835Z,62373.08
2022-09-27T06:52:10.962Z,62345.96
2022-09-27T06:53:14.691Z,62355.00
2022-09-27T06:54:18.533Z,62333.91
2022-09-27T06:55:21.666Z,62330.90
2022-09-27T06:56:25.289Z,62311.81
2022-09-27T06:57:31.044Z,62294.74
2022-09-27T06:58:36.970Z,62267.62
2022-09-27T06:59:40.056Z,62261.59
2022-09-27T07:00:43.323Z,62188.27
2022-09-27T07:01:47.620Z,62165.18
2022-09-27T07:02:50.798Z,62100.90
2022-09-27T07:03:54.091Z,62078.80
2022-09-27T07:04:57.280Z,62020.55
2022-09-27T07:06:04.178Z,61945.23
2022-09-27T07:07:13.859Z,61947.23
2022-09-27T07:08:16.983Z,61892.00
2022-09-27T07:09:20.589Z,61874.93
2022-09-27T07:10:30.828Z,61796.59
2022-09-27T07:11:34.076Z,61759.43
2022-09-27T07:12:43.432Z,61710.23
2022-09-27T07:13:46.591Z,61666.04
2022-09-27T07:14:55.758Z,61642.94
2022-09-27T07:15:59.614Z,61573.65
2022-09-27T07:17:03.746Z,61601.77
2022-09-27T07:18:18.369Z,61547.54
2022-09-27T07:19:21.648Z,61558.59
2022-09-27T07:20:25.111Z,61512.39
2022-09-27T07:21:32.660Z,61521.43
2022-09-27T07:22:37.172Z,61500.34
2022-09-27T07:23:40.765Z,61518.42
2022-09-27T07:24:51.025Z,61496.33
2022-09-27T07:25:57.690Z,61464.20
2022-09-27T07:27:00.940Z,61463.19
2022-09-27T07:28:04.462Z,61430.05
2022-09-27T07:29:13.836Z,61405.95
2022-09-27T07:30:16.738Z,61407.96
2022-09-27T07:31:26.142Z,61431.06
2022-09-27T07:32:29.406Z,61431.06
2022-09-27T07:33:39.954Z,61463.19
2022-09-27T07:34:44.751Z,61464.20
2022-09-27T07:35:47.979Z,61532.48
2022-09-27T07:36:50.966Z,61568.63
2022-09-27T07:37:58.963Z,61631.89
2022-09-27T07:39:04.082Z,61695.16
2022-09-27T07:40:13.705Z,61795.59
2022-09-27T07:41:19.610Z,61879.95
2022-09-27T07:42:29.778Z,61946.23
2022-09-27T07:43:38.014Z,62016.53
2022-09-27T07:44:44.901Z,62108.93
2022-09-27T07:45:47.822Z,62131.03
2022-09-27T07:46:51.141Z,62190.28
2022-09-27T07:47:54.854Z,62200.33
2022-09-27T07:48:58.835Z,62222.43
2022-09-27T07:50:02.422Z,62261.59
2022-09-27T07:51:06.425Z,62250.54
2022-09-27T07:52:16.972Z,62292.73
2022-09-27T07:53:20.895Z,62322.86
2022-09-27T07:54:24.453Z,62422.30
2022-09-27T07:55:28.604Z,62388.15
2022-09-27T07:56:37.214Z,62438.37
2022-09-27T07:57:40.589Z,62469.51
2022-09-27T07:58:44.466Z,62482.56
2022-09-27T07:59:53.321Z,62498.64
2022-09-27T08:00:58.153Z,62566.94
2022-09-27T08:02:01.204Z,62637.25
2022-09-27T08:03:04.780Z,62706.56
2022-09-27T08:04:07.761Z,62859.25
2022-09-27T08:05:10.733Z,62988.83
2022-09-27T08:06:24.562Z,63094.31
2022-09-27T08:07:28.602Z,63173.68
2022-09-27T08:08:39.952Z,63360.54
2022-09-27T08:09:43.577Z,63409.77
2022-09-27T08:10:46.975Z,63459.00
2022-09-27T08:11:50.502Z,63427.85
2022-09-27T08:12:56.587Z,63398.71
2022-09-27T08:13:59.525Z,63441.92
2022-09-27T08:15:04.970Z,63484.11
2022-09-27T08:16:08.268Z,63483.11
2022-09-27T08:17:11.721Z,63479.09
2022-09-27T08:18:15.044Z,63459.00
2022-09-27T08:19:19.544Z,63465.02
2022-09-27T08:20:22.851Z,63469.04
2022-09-27T08:22:47.110Z,63511.24
2022-09-27T08:23:50.262Z,63563.48
2022-09-27T08:25:02.010Z,63553.44
2022-09-27T08:26:07.732Z,63575.54
2022-09-27T08:27:16.506Z,63616.73
2022-09-27T08:28:19.789Z,63616.73
2022-09-27T08:29:23.080Z,63630.80
2022-09-27T08:30:26.148Z,63647.88
2022-09-27T08:31:29.082Z,63659.94
2022-09-27T08:32:32.109Z,63658.93
2022-09-27T08:33:39.216Z,63676.02
2022-09-27T08:34:40.129Z,63639.84
2022-09-27T08:35:42.892Z,63626.78
2022-09-27T08:36:46.273Z,63629.80
2022-09-27T08:37:54.469Z,63628.79
2022-09-27T08:39:09.865Z,63644.87
2022-09-27T08:40:12.949Z,63650.89
2022-09-27T08:41:17.250Z,63702.14
2022-09-27T08:42:20.424Z,63702.14
2022-09-27T08:43:25.761Z,63694.10
2022-09-27T08:44:29.465Z,63729.27
2022-09-27T08:45:35.778Z,63753.38
2022-09-27T08:46:41.020Z,63714.20
2022-09-27T08:47:43.940Z,63729.27
2022-09-27T08:48:50.179Z,63738.31
2022-09-27T08:50:01.653Z,63718.21
2022-09-27T08:51:10.943Z,63718.21
2022-09-27T08:52:13.641Z,63732.28
2022-09-27T08:53:20.790Z,63684.05
2022-09-27T08:54:24.179Z,63632.81
2022-09-27T08:55:27.980Z,63556.45
2022-09-27T08:56:31.104Z,63486.12
2022-09-27T08:58:54.537Z,63385.66
2022-09-27T08:59:57.834Z,63387.66
2022-09-27T09:01:00.800Z,63307.29
2022-09-27T09:02:06.294Z,63314.32
2022-09-27T09:03:08.992Z,63239.98
2022-09-27T09:04:12.867Z,63169.66
2022-09-27T09:05:16.061Z,63090.29
2022-09-27T09:06:19.324Z,62989.84
2022-09-27T09:07:24.319Z,62880.34
2022-09-27T09:08:27.275Z,62797.97
2022-09-27T09:09:30.378Z,62752.77
2022-09-27T09:10:33.818Z,62706.56
2022-09-27T09:11:43.501Z,62570.96
2022-09-27T09:12:53.501Z,62523.75
2022-09-27T09:13:59.885Z,62480.55
2022-09-27T09:15:03.343Z,62462.48
2022-09-27T09:16:06.739Z,62407.23
2022-09-27T09:17:12.086Z,62312.82
2022-09-27T09:18:15.588Z,62252.55
2022-09-27T09:19:25.828Z,62232.46
2022-09-27T09:20:31.299Z,62208.36
2022-09-27T09:21:34.106Z,62225.44
2022-09-27T09:22:37.489Z,62180.24
2022-09-27T09:23:47.843Z,62063.73
2022-09-27T09:24:51.488Z,62012.52
2022-09-27T09:25:59.497Z,61900.03
2022-09-27T09:27:03.783Z,61841.79
2022-09-27T09:28:10.167Z,61769.48
2022-09-27T09:29:13.280Z,61753.41
2022-09-27T09:30:16.353Z,61724.29
2022-09-27T09:31:19.335Z,61691.14
2022-09-27T09:32:23.245Z,61677.09
2022-09-27T09:33:26.929Z,61672.07
2022-09-27T09:34:33.801Z,61713.24
2022-09-27T09:35:37.084Z,61733.32
2022-09-27T09:36:40.581Z,61748.39
2022-09-27T09:37:43.949Z,61731.32
2022-09-27T09:38:47.967Z,61764.46
2022-09-27T09:39:51.745Z,61754.41
2022-09-27T09:40:59.924Z,61784.54
2022-09-27T09:42:03.465Z,61801.61
2022-09-27T09:43:06.635Z,61848.82
2022-09-27T09:44:11.100Z,61919.11
2022-09-27T09:45:14.519Z,61913.09
2022-09-27T09:46:18.819Z,61988.41
2022-09-27T09:47:23.264Z,62023.56
2022-09-27T09:48:27.865Z,62139.06
2022-09-27T09:49:34.018Z,62207.36
2022-09-27T09:50:37.191Z,62251.55
2022-09-27T09:51:40.997Z,62358.02
2022-09-27T09:52:44.184Z,62474.53
2022-09-27T09:53:47.259Z,62585.02
2022-09-27T09:54:52.283Z,62655.33
2022-09-27T09:55:55.398Z,62732.68
2022-09-27T09:57:05.671Z,62885.36
2022-09-27T09:58:08.682Z,62960.71
2022-09-27T09:59:11.857Z,63020.98
2022-09-27T10:00:15.969Z,63086.28
2022-09-27T10:01:19.312Z,63171.67
2022-09-27T10:02:23.176Z,63187.74
2022-09-27T10:03:27.346Z,63262.08
2022-09-27T10:04:30.664Z,63331.41
2022-09-27T10:05:34.450Z,63348.48
2022-09-27T10:06:41.000Z,63419.81
2022-09-27T10:07:44.485Z,63456.99
2022-09-27T10:08:47.659Z,63510.23
2022-09-27T10:09:50.874Z,63552.43
2022-09-27T10:10:55.664Z,63585.59
2022-09-27T10:11:58.949Z,63678.02
2022-09-27T10:13:03.283Z,63757.40
2022-09-27T10:15:32.263Z,63907.11
2022-09-27T10:16:48.228Z,64023.67
2022-09-27T10:17:51.781Z,64029.70
2022-09-27T10:19:11.211Z,64144.25
2022-09-27T10:21:38.343Z,64246.75
2022-09-27T10:22:45.187Z,64293.98
2022-09-27T10:23:48.512Z,64076.93
2022-09-27T10:24:51.872Z,63582.57
2022-09-27T10:25:58.102Z,63407.76
2022-09-27T10:27:03.969Z,63288.20
2022-09-27T10:28:07.374Z,63184.73
2022-09-27T10:29:22.574Z,63168.66
2022-09-27T10:30:25.320Z,63159.61
2022-09-27T10:31:30.068Z,63075.23
2022-09-27T10:32:36.988Z,62990.84
2022-09-27T10:33:40.074Z,62887.37
2022-09-27T10:34:43.470Z,62884.36
2022-09-27T10:35:46.733Z,62833.13
2022-09-27T10:36:56.645Z,62804.00
2022-09-27T10:38:04.174Z,62775.87
2022-09-27T10:39:09.487Z,62730.67
2022-09-27T10:40:13.316Z,62705.55
2022-09-27T10:41:16.484Z,62659.35
2022-09-27T10:42:20.380Z,62572.96
2022-09-27T10:43:26.313Z,62535.80
2022-09-27T10:44:28.890Z,62449.42
2022-09-27T10:45:33.810Z,62412.25
2022-09-27T10:46:40.885Z,62245.52
2022-09-27T10:47:44.581Z,62036.62
2022-09-27T10:48:47.763Z,61897.02
2022-09-27T10:49:50.837Z,61709.22
2022-09-27T10:50:58.179Z,61546.54
2022-09-27T10:52:00.688Z,61439.09
2022-09-27T10:53:03.544Z,61266.37
2022-09-27T10:54:06.731Z,61129.82
2022-09-27T10:55:10.318Z,60920.97
2022-09-27T10:56:24.578Z,60789.44
2022-09-27T10:57:27.869Z,60538.45
2022-09-27T10:58:31.436Z,60273.42
2022-09-27T10:59:34.412Z,59899.99
2022-09-27T11:00:37.856Z,56822.57
2022-09-27T11:01:41.403Z,56568.82
2022-09-27T11:02:44.479Z,56209.79
2022-09-27T11:03:47.354Z,56081.42
2022-09-27T11:04:53.218Z,55947.05
2022-09-27T11:05:56.270Z,55878.86
2022-09-27T11:07:10.972Z,55801.64
2022-09-27T11:08:14.076Z,55724.43
2022-09-27T11:09:29.420Z,55640.20
2022-09-27T11:11:53.550Z,55499.83
2022-09-27T11:12:57.351Z,55442.68
2022-09-27T11:14:01.869Z,55370.48
2022-09-27T11:15:05.461Z,55293.29
2022-09-27T11:16:09.320Z,55253.18
2022-09-27T11:17:18.704Z,55222.10
2022-09-27T11:18:22.844Z,55203.05
2022-09-27T11:19:26.122Z,55127.86
2022-09-27T11:20:29.454Z,55105.80
2022-09-27T11:21:34.742Z,55056.67
2022-09-27T11:22:38.173Z,55015.57
2022-09-27T11:23:41.355Z,54981.48
2022-09-27T11:24:46.908Z,54929.35
2022-09-27T11:26:07.488Z,54912.31
2022-09-27T11:27:10.252Z,54864.19
2022-09-27T11:28:13.849Z,54862.18
2022-09-27T11:29:26.294Z,54585.50
2022-09-27T11:30:40.099Z,54566.45
2022-09-27T11:31:46.813Z,54516.33
2022-09-27T11:32:55.347Z,54511.32
2022-09-27T11:33:59.975Z,54475.23
2022-09-27T11:35:04.003Z,54426.11
2022-09-27T11:36:07.076Z,54486.26
2022-09-27T11:38:51.631Z,54507.31
2022-09-27T11:39:35.227Z,54471.22
2022-09-27T11:40:38.394Z,54477.23
2022-09-27T11:41:41.793Z,54464.20
2022-09-27T11:42:45.179Z,54428.12
2022-09-27T11:43:48.565Z,54477.23
2022-09-27T11:45:07.810Z,54447.16
2022-09-27T11:46:15.514Z,54452.18
2022-09-27T11:47:04.602Z,54472.22
2022-09-27T11:48:13.271Z,54472.22
2022-09-27T11:49:17.586Z,54486.26
2022-09-27T11:50:20.660Z,54475.23
2022-09-27T11:51:23.852Z,54506.30
2022-09-27T11:52:27.649Z,54465.21
2022-09-27T11:53:30.720Z,54442.15
2022-09-27T11:54:33.894Z,54451.17
2022-09-27T11:55:39.573Z,54452.18
2022-09-27T11:56:45.078Z,54390.03
2022-09-27T11:57:54.667Z,54446.16
2022-09-27T11:58:57.902Z,54390.03
2022-09-27T12:00:00.875Z,54408.07
2022-09-27T12:01:03.955Z,54390.03
2022-09-27T12:02:07.397Z,54354.94
2022-09-27T12:03:11.393Z,54355.95
2022-09-27T12:04:14.636Z,54341.91
2022-09-27T12:05:27.481Z,54303.82
2022-09-27T12:06:37.040Z,54318.86
2022-09-27T12:07:40.373Z,54279.77
2022-09-27T12:08:43.626Z,54280.77
2022-09-27T12:09:46.924Z,54228.64
2022-09-27T12:10:54.610Z,54240.67
2022-09-27T12:11:57.881Z,54199.57
2022-09-27T12:13:01.370Z,54247.69
2022-09-27T12:14:04.451Z,54188.55
2022-09-27T12:15:07.596Z,54211.61
2022-09-27T12:16:10.558Z,54218.62
2022-09-27T12:17:13.587Z,54206.59
2022-09-27T12:18:16.987Z,54145.45
2022-09-27T12:20:57.548Z,54165.50
2022-09-27T12:22:03.385Z,54142.44
2022-09-27T12:23:06.994Z,54174.52
2022-09-27T12:24:09.768Z,54137.43
2022-09-27T12:25:15.941Z,54126.41
2022-09-27T12:26:17.140Z,54115.38
2022-09-27T12:27:29.286Z,54107.36
2022-09-27T12:28:33.071Z,54126.41
2022-09-27T12:29:36.101Z,54114.38
2022-09-27T12:30:38.996Z,54106.36
2022-09-27T12:31:44.591Z,54107.36
2022-09-27T12:32:48.231Z,54074.29
2022-09-27T12:33:51.185Z,54111.37
2022-09-27T12:34:55.594Z,54091.32
2022-09-27T12:36:05.028Z,54102.35
2022-09-27T12:37:08.102Z,54060.25
2022-09-27T12:38:11.370Z,54067.27
2022-09-27T12:39:14.346Z,54070.28
2022-09-27T12:40:32.062Z,54035.20
2022-09-27T12:41:35.169Z,54028.18
2022-09-27T12:42:44.710Z,54018.16
2022-09-27T12:43:50.668Z,54024.17
2022-09-27T12:44:53.937Z,53995.11
2022-09-27T12:45:57.011Z,53994.10
2022-09-27T12:47:13.294Z,54012.14
2022-09-27T12:48:16.705Z,53990.09
2022-09-27T12:50:40.454Z,53985.08
2022-09-27T12:51:43.442Z,54013.14
2022-09-27T12:52:46.501Z,53972.05
2022-09-27T12:53:55.334Z,53970.05